Time;durP1;ratioP1;P1;durP2;ratioP2;P2;SDS_P1;SDS_P2;PMS_P1;PMS_P2;Temp;Humidity;BMP_temperature;BMP_pressure;BME280_temperature;BME280_humidity;BME280_pressure;Samples;Min_cycle;Max_cycle;Signal;HPM_P1;HPM_P2
2023/01/23 00:01:04;;;;;;;38.70;24.63;;;1.70;99.90;;;;;;4925034;29;20055;-77
2023/01/23 00:03:31;;;;;;;39.22;24.02;;;1.70;99.90;;;;;;4923530;29;20056;-76
2023/01/23 00:06:06;;;;;;;39.30;24.70;;;1.70;99.90;;;;;;4928860;29;20080;-77
2023/01/23 00:08:34;;;;;;;38.30;24.85;;;1.70;99.90;;;;;;4928617;29;20055;-77
2023/01/23 00:11:05;;;;;;;39.40;23.85;;;1.70;99.90;;;;;;4924640;29;20071;-77
2023/01/23 00:13:33;;;;;;;35.25;23.35;;;1.70;99.90;;;;;;4925992;29;20067;-77
2023/01/23 00:16:10;;;;;;;42.67;25.67;;;1.80;99.90;;;;;;4928379;29;20059;-77
2023/01/23 00:18:37;;;;;;;37.70;24.15;;;1.80;99.90;;;;;;4926683;29;20052;-77
2023/01/23 00:21:05;;;;;;;39.00;25.13;;;1.80;99.90;;;;;;4909534;29;20513;-76
2023/01/23 00:23:32;;;;;;;41.80;25.77;;;1.80;99.90;;;;;;4928637;29;20094;-76
2023/01/23 00:26:07;;;;;;;39.00;24.40;;;1.70;99.90;;;;;;4931042;29;20424;-77
2023/01/23 00:28:34;;;;;;;40.10;25.35;;;1.70;99.90;;;;;;4920636;29;20143;-77
2023/01/23 00:31:14;;;;;;;38.20;24.20;;;1.70;99.90;;;;;;4921225;29;20052;-77
2023/01/23 00:33:42;;;;;;;42.20;25.85;;;1.60;99.90;;;;;;4912076;29;20056;-77
2023/01/23 00:36:10;;;;;;;39.17;24.80;;;1.60;99.90;;;;;;4918071;29;20055;-77
2023/01/23 00:38:38;;;;;;;41.55;25.50;;;1.60;99.90;;;;;;4931517;29;20083;-77
2023/01/23 00:41:05;;;;;;;40.10;24.70;;;1.50;99.90;;;;;;4931278;29;20056;-77
2023/01/23 00:43:32;;;;;;;40.40;24.60;;;1.50;99.90;;;;;;4923288;29;20063;-77
2023/01/23 00:45:59;;;;;;;45.35;26.35;;;1.60;99.90;;;;;;4926127;29;20048;-77
2023/01/23 00:48:26;;;;;;;42.88;24.90;;;1.50;99.90;;;;;;4925617;29;20044;-77
2023/01/23 00:50:52;;;;;;;42.85;25.70;;;1.50;99.90;;;;;;4929125;29;20052;-77
2023/01/23 00:53:19;;;;;;;38.55;25.15;;;1.50;99.90;;;;;;4908041;29;20047;-77
2023/01/23 00:55:46;;;;;;;40.67;25.08;;;1.50;99.90;;;;;;4923020;29;20044;-77
2023/01/23 00:58:13;;;;;;;43.10;25.83;;;1.50;99.90;;;;;;4918405;29;20044;-77
2023/01/23 01:00:40;;;;;;;42.35;26.23;;;1.50;99.90;;;;;;4930204;29;20052;-77
2023/01/23 01:03:07;;;;;;;40.35;25.13;;;1.50;99.90;;;;;;4925220;29;20475;-77
2023/01/23 01:05:34;;;;;;;38.85;25.95;;;1.50;99.90;;;;;;4928650;29;20498;-77
2023/01/23 01:08:00;;;;;;;39.63;25.25;;;1.50;99.90;;;;;;4908865;29;20514;-77
2023/01/23 01:10:28;;;;;;;40.45;25.75;;;1.50;99.90;;;;;;4917978;29;20058;-77
2023/01/23 01:12:56;;;;;;;43.05;26.13;;;1.50;99.90;;;;;;4922221;29;20076;-77
2023/01/23 01:15:23;;;;;;;42.58;25.80;;;1.50;99.90;;;;;;4907030;29;20063;-77
2023/01/23 01:17:53;;;;;;;38.83;25.38;;;1.50;99.90;;;;;;4929803;29;20055;-77
2023/01/23 01:20:24;;;;;;;42.42;25.52;;;1.60;99.90;;;;;;4927335;29;20087;-77
2023/01/23 01:22:52;;;;;;;41.50;25.13;;;1.60;99.90;;;;;;4925262;29;20135;-77
2023/01/23 01:25:19;;;;;;;38.67;24.33;;;1.60;99.90;;;;;;4931489;29;20059;-77
2023/01/23 01:27:46;;;;;;;41.63;24.60;;;1.70;99.90;;;;;;4925077;29;20048;-77
2023/01/23 01:30:13;;;;;;;41.63;24.20;;;1.70;99.90;;;;;;4924016;29;20095;-77
2023/01/23 01:32:42;;;;;;;36.00;23.52;;;1.70;99.90;;;;;;4926195;29;20079;-77
2023/01/23 01:35:10;;;;;;;41.35;24.90;;;1.70;99.90;;;;;;4928093;29;20486;-77
2023/01/23 01:37:38;;;;;;;37.90;23.77;;;1.70;99.90;;;;;;4915456;29;20059;-77
2023/01/23 01:40:07;;;;;;;40.20;24.63;;;1.80;99.90;;;;;;4917217;29;20043;-77
2023/01/23 01:42:49;;;;;;;40.15;24.98;;;1.80;99.90;;;;;;4924833;29;20510;-77
2023/01/23 01:45:53;;;;;;;37.05;23.52;;;1.80;99.90;;;;;;4926417;29;20090;-77
2023/01/23 01:48:23;;;;;;;42.95;26.17;;;1.80;99.90;;;;;;4928385;29;20052;-77
2023/01/23 01:50:51;;;;;;;40.67;24.45;;;1.90;99.90;;;;;;4931557;29;20066;-77
2023/01/23 01:53:20;;;;;;;40.03;24.90;;;1.90;99.90;;;;;;4923141;29;20047;-77
2023/01/23 01:55:47;;;;;;;34.92;23.08;;;1.90;99.90;;;;;;4924759;29;20086;-77
2023/01/23 01:58:14;;;;;;;37.92;24.27;;;1.90;99.90;;;;;;4925616;29;20502;-77
2023/01/23 02:00:41;;;;;;;36.97;23.17;;;1.90;99.90;;;;;;4927591;29;20048;-77
2023/01/23 02:03:08;;;;;;;40.88;24.13;;;1.90;99.90;;;;;;4926538;29;20074;-77
2023/01/23 02:05:44;;;;;;;37.65;24.17;;;1.90;99.90;;;;;;4922057;29;20147;-77
2023/01/23 02:08:52;;;;;;;35.78;23.10;;;1.90;99.90;;;;;;4924830;29;20134;-77
2023/01/23 02:11:19;;;;;;;37.38;23.50;;;1.90;99.90;;;;;;4907157;29;20094;-76
2023/01/23 02:13:46;;;;;;;39.38;24.15;;;1.90;99.90;;;;;;4927587;29;20051;-77
2023/01/23 02:16:22;;;;;;;35.17;22.88;;;1.90;99.90;;;;;;4929756;29;20051;-77
2023/01/23 02:18:52;;;;;;;37.55;23.17;;;2.00;99.90;;;;;;4918614;29;20060;-77
2023/01/23 02:21:20;;;;;;;;;;;1.90;99.90;;;;;;4921940;29;20055;-77
2023/01/23 02:24:06;;;;;;;36.22;22.55;;;1.90;99.90;;;;;;4905588;29;19927;-77
2023/01/23 02:26:39;;;;;;;30.88;20.50;;;1.90;99.90;;;;;;4925892;29;20095;-77
2023/01/23 02:29:06;;;;;;;36.00;22.20;;;1.90;99.90;;;;;;4926851;29;20068;-77
2023/01/23 02:31:34;;;;;;;36.35;23.05;;;1.80;99.90;;;;;;4922387;29;20051;-77
2023/01/23 02:34:01;;;;;;;34.55;22.67;;;1.80;99.90;;;;;;4917744;29;20048;-77
2023/01/23 02:36:33;;;;;;;37.80;22.98;;;1.80;99.90;;;;;;4923464;29;20058;-77
2023/01/23 02:39:12;;;;;;;33.90;21.65;;;1.80;99.90;;;;;;4926088;29;20056;-77
2023/01/23 02:41:42;;;;;;;35.05;21.40;;;1.70;99.90;;;;;;4906816;29;20699;-78
2023/01/23 02:44:27;;;;;;;31.20;21.35;;;1.80;99.90;;;;;;4909378;29;20048;-77
2023/01/23 02:46:55;;;;;;;30.63;21.52;;;1.80;99.90;;;;;;4925748;29;20048;-77
2023/01/23 02:49:22;;;;;;;34.25;22.38;;;1.80;99.90;;;;;;4918892;29;20074;-77
2023/01/23 02:51:50;;;;;;;35.83;21.55;;;1.80;99.90;;;;;;4919369;29;20051;-77
2023/01/23 02:54:17;;;;;;;36.00;23.05;;;1.90;99.90;;;;;;4930074;29;20130;-77
2023/01/23 02:56:44;;;;;;;31.30;20.30;;;1.80;99.90;;;;;;4929222;29;20095;-77
2023/01/23 03:01:56;;;;;;;30.40;19.88;;;1.90;99.90;;;;;;4929420;29;20139;-77
2023/01/23 03:04:24;;;;;;;33.28;21.02;;;1.90;99.90;;;;;;4921563;29;20052;-77
2023/01/23 03:06:51;;;;;;;34.65;21.33;;;1.90;99.90;;;;;;4924558;29;20139;-77
2023/01/23 03:09:18;;;;;;;33.60;20.80;;;1.90;99.90;;;;;;4923540;29;20043;-77
2023/01/23 03:11:46;;;;;;;32.03;21.70;;;2.00;99.90;;;;;;4915290;29;20135;-77
2023/01/23 03:14:18;;;;;;;31.60;20.45;;;2.00;99.90;;;;;;4923999;29;20096;-77
2023/01/23 03:16:49;;;;;;;32.17;19.98;;;2.00;99.90;;;;;;4916206;29;20440;-77
2023/01/23 03:19:18;;;;;;;32.75;21.13;;;1.90;99.90;;;;;;4916939;29;20048;-77
2023/01/23 03:21:45;;;;;;;29.90;18.58;;;1.90;99.90;;;;;;4925238;29;20135;-77
2023/01/23 03:24:13;;;;;;;32.10;18.50;;;1.90;99.90;;;;;;4927310;29;20058;-77
2023/01/23 03:26:41;;;;;;;26.83;19.30;;;1.90;99.90;;;;;;4927227;29;20475;-76
2023/01/23 03:32:10;;;;;;;27.35;18.30;;;1.80;99.90;;;;;;4920557;29;20167;-77
2023/01/23 03:34:37;;;;;;;30.92;19.55;;;1.70;99.90;;;;;;4901301;29;20052;-77
2023/01/23 03:37:06;;;;;;;32.30;20.70;;;1.60;99.90;;;;;;4909476;29;20047;-77
2023/01/23 03:42:26;;;;;;;31.48;20.60;;;1.60;99.90;;;;;;4906460;29;20298;-77
2023/01/23 03:44:53;;;;;;;32.00;20.17;;;1.70;99.90;;;;;;4928692;29;20063;-78
2023/01/23 03:47:19;;;;;;;28.60;19.27;;;1.70;99.90;;;;;;4922520;29;20058;-77
2023/01/23 03:49:46;;;;;;;25.67;18.27;;;1.80;99.90;;;;;;4902944;29;20082;-77
2023/01/23 03:52:13;;;;;;;26.25;17.75;;;1.80;99.90;;;;;;4914680;29;20078;-77
2023/01/23 03:54:41;;;;;;;28.83;17.88;;;1.90;99.90;;;;;;4926041;29;20466;-77
2023/01/23 03:57:08;;;;;;;28.92;19.02;;;1.80;99.90;;;;;;4911111;29;20056;-77
2023/01/23 03:59:35;;;;;;;27.27;17.92;;;1.90;99.90;;;;;;4920533;29;20056;-77
2023/01/23 04:02:03;;;;;;;26.58;18.85;;;1.90;99.90;;;;;;4919113;29;20055;-77
2023/01/23 04:04:32;;;;;;;26.38;17.92;;;2.00;99.90;;;;;;4913720;29;20059;-77
2023/01/23 04:06:59;;;;;;;29.02;19.33;;;1.90;99.90;;;;;;4931191;29;20556;-77
2023/01/23 04:09:27;;;;;;;27.63;18.38;;;1.90;99.90;;;;;;4931407;29;20048;-77
2023/01/23 04:11:54;;;;;;;28.02;17.95;;;2.00;99.90;;;;;;4926229;29;20050;-77
2023/01/23 04:14:22;;;;;;;27.63;17.20;;;2.00;99.90;;;;;;4918941;29;20074;-77
2023/01/23 04:16:49;;;;;;;26.83;16.98;;;1.90;99.90;;;;;;4924367;29;20782;-77
2023/01/23 04:19:18;;;;;;;24.90;16.70;;;1.90;99.90;;;;;;4925785;29;20083;-78
2023/01/23 04:21:48;;;;;;;25.42;16.38;;;1.90;99.90;;;;;;4928187;29;20114;-78
2023/01/23 04:24:15;;;;;;;;;;;2.00;99.90;;;;;;4917742;29;20047;-78
2023/01/23 04:26:42;;;;;;;25.02;16.02;;;2.00;99.90;;;;;;4906266;29;19947;-78
2023/01/23 04:29:09;;;;;;;26.08;16.42;;;2.00;99.90;;;;;;4908613;29;20043;-78
2023/01/23 04:31:35;;;;;;;25.08;15.90;;;2.00;99.90;;;;;;4926325;29;20498;-77
2023/01/23 04:34:02;;;;;;;25.00;15.98;;;2.00;99.90;;;;;;4909059;29;20074;-77
2023/01/23 04:36:29;;;;;;;21.02;15.88;;;2.10;99.90;;;;;;4928084;29;20556;-76
2023/01/23 04:38:57;;;;;;;30.02;17.05;;;2.10;99.90;;;;;;4912299;29;20060;-76
2023/01/23 04:41:26;;;;;;;23.58;16.58;;;2.10;99.90;;;;;;4901880;29;20096;-77
2023/01/23 04:43:53;;;;;;;22.90;15.73;;;2.10;99.90;;;;;;4921301;29;20135;-76
2023/01/23 04:46:20;;;;;;;21.92;15.15;;;2.10;99.90;;;;;;4907179;29;20051;-77
2023/01/23 04:48:47;;;;;;;22.42;15.05;;;2.10;99.90;;;;;;4929184;29;20054;-77
2023/01/23 04:51:14;;;;;;;20.40;14.73;;;2.10;99.90;;;;;;4926387;29;20039;-76
2023/01/23 04:53:41;;;;;;;20.38;13.90;;;2.10;99.90;;;;;;4932724;29;20059;-77
2023/01/23 04:56:08;;;;;;;19.50;13.40;;;2.10;99.90;;;;;;4927009;29;20541;-77
2023/01/23 04:58:34;;;;;;;20.52;13.95;;;2.10;99.90;;;;;;4923859;29;20501;-77
2023/01/23 05:01:06;;;;;;;24.38;14.98;;;2.10;99.90;;;;;;4925891;29;20056;-77
2023/01/23 05:03:33;;;;;;;22.02;14.05;;;2.10;99.90;;;;;;4927980;29;20058;-77
2023/01/23 05:06:00;;;;;;;21.83;14.68;;;2.10;99.90;;;;;;4909714;29;20558;-76
2023/01/23 05:08:27;;;;;;;21.73;14.25;;;2.10;99.90;;;;;;4923518;29;20111;-76
2023/01/23 05:10:54;;;;;;;22.50;13.90;;;2.10;99.90;;;;;;4919860;29;20058;-77
2023/01/23 05:13:21;;;;;;;21.42;14.32;;;2.10;99.90;;;;;;4929021;29;20165;-76
2023/01/23 05:15:47;;;;;;;19.90;13.68;;;2.10;99.90;;;;;;4910689;29;20083;-76
2023/01/23 05:18:14;;;;;;;21.13;13.00;;;2.10;99.90;;;;;;4930470;29;20445;-76
2023/01/23 05:20:41;;;;;;;17.65;12.57;;;2.10;99.90;;;;;;4912675;29;20139;-76
2023/01/23 05:23:07;;;;;;;18.83;13.10;;;2.10;99.90;;;;;;4927315;29;20052;-76
2023/01/23 05:25:34;;;;;;;19.52;13.00;;;2.00;99.90;;;;;;4916626;29;20139;-76
2023/01/23 05:28:01;;;;;;;20.05;13.65;;;1.90;99.90;;;;;;4906944;29;20043;-76
2023/01/23 05:30:27;;;;;;;20.90;13.48;;;1.80;99.90;;;;;;4924338;29;20055;-76
2023/01/23 05:32:54;;;;;;;20.92;13.75;;;1.80;99.90;;;;;;4928646;29;20521;-76
2023/01/23 05:35:21;;;;;;;18.63;13.05;;;1.70;99.90;;;;;;4922451;29;20059;-77
2023/01/23 05:37:52;;;;;;;23.02;15.00;;;1.70;99.90;;;;;;4925743;29;20051;-76
2023/01/23 05:40:19;;;;;;;22.80;14.63;;;1.60;99.90;;;;;;4925309;29;20172;-77
2023/01/23 05:42:47;;;;;;;22.77;15.25;;;1.60;99.90;;;;;;4905056;29;20056;-77
2023/01/23 05:45:15;;;;;;;21.20;14.52;;;1.60;99.90;;;;;;4925854;29;20051;-76
2023/01/23 05:47:42;;;;;;;22.55;15.65;;;1.60;99.90;;;;;;4910314;29;20421;-77
2023/01/23 05:50:14;;;;;;;22.00;14.75;;;1.60;99.90;;;;;;4924957;29;20043;-76
2023/01/23 05:52:41;;;;;;;22.38;14.93;;;1.60;99.90;;;;;;4919806;29;20067;-77
2023/01/23 05:55:08;;;;;;;22.88;15.35;;;1.60;99.90;;;;;;4919070;29;20104;-77
2023/01/23 05:57:35;;;;;;;23.23;15.52;;;1.50;99.90;;;;;;4927765;29;20135;-78
2023/01/23 06:00:04;;;;;;;23.40;15.60;;;1.60;99.90;;;;;;4927460;29;20182;-77
2023/01/23 06:02:30;;;;;;;24.13;15.52;;;1.60;99.90;;;;;;4930349;29;20135;-77
2023/01/23 06:04:57;;;;;;;23.25;15.25;;;1.60;99.90;;;;;;4931580;29;20107;-78
2023/01/23 06:07:24;;;;;;;23.02;15.35;;;1.60;99.90;;;;;;4922462;29;20052;-77
2023/01/23 06:09:50;;;;;;;25.33;15.85;;;1.60;99.90;;;;;;4923649;29;20052;-77
2023/01/23 06:12:17;;;;;;;23.55;15.38;;;1.60;99.90;;;;;;4909471;29;20095;-77
2023/01/23 06:14:44;;;;;;;23.63;16.05;;;1.70;99.90;;;;;;4923709;29;20044;-77
2023/01/23 06:17:11;;;;;;;21.88;14.80;;;1.60;99.90;;;;;;4915531;29;20055;-77
2023/01/23 06:19:38;;;;;;;22.50;14.95;;;1.60;99.90;;;;;;4922034;29;20048;-77
2023/01/23 06:22:05;;;;;;;22.20;15.18;;;1.60;99.90;;;;;;4919535;29;20131;-77
2023/01/23 06:24:31;;;;;;;23.17;16.45;;;1.60;99.90;;;;;;4909102;29;20143;-78
2023/01/23 06:26:58;;;;;;;22.20;14.75;;;1.60;99.90;;;;;;4927945;29;20048;-78
2023/01/23 06:29:25;;;;;;;21.80;15.25;;;1.60;99.90;;;;;;4927538;29;20052;-78
2023/01/23 06:31:51;;;;;;;21.15;13.85;;;1.60;99.90;;;;;;4927652;29;20088;-78
2023/01/23 06:34:18;;;;;;;22.48;14.75;;;1.60;99.90;;;;;;4923489;29;20180;-77
2023/01/23 06:36:46;;;;;;;22.40;15.68;;;1.60;99.90;;;;;;4920568;29;20045;-77
2023/01/23 06:39:14;;;;;;;20.77;14.95;;;1.60;99.90;;;;;;4919665;29;20074;-77
2023/01/23 06:41:41;;;;;;;22.75;14.93;;;1.70;99.90;;;;;;4926101;29;20086;-77
2023/01/23 06:44:08;;;;;;;21.98;14.68;;;1.60;99.90;;;;;;4924460;29;20048;-77
2023/01/23 06:46:34;;;;;;;24.98;15.75;;;1.60;99.90;;;;;;4919958;29;20454;-77
2023/01/23 06:49:02;;;;;;;21.02;14.88;;;1.60;99.90;;;;;;4916975;29;20100;-77
2023/01/23 06:51:32;;;;;;;23.00;16.13;;;1.60;99.90;;;;;;4922800;29;20048;-77
2023/01/23 06:53:59;;;;;;;24.73;16.50;;;1.60;99.90;;;;;;4926310;29;20135;-78
2023/01/23 06:56:25;;;;;;;25.70;15.18;;;1.60;99.90;;;;;;4923010;29;20537;-77
2023/01/23 06:58:52;;;;;;;22.02;13.73;;;1.60;99.90;;;;;;4926310;29;20187;-77
2023/01/23 07:01:19;;;;;;;19.48;12.93;;;1.60;99.90;;;;;;4919395;29;20056;-77
2023/01/23 07:03:46;;;;;;;21.77;13.90;;;1.50;99.90;;;;;;4921211;29;20055;-77
2023/01/23 07:06:14;;;;;;;22.88;14.57;;;1.50;99.90;;;;;;4923607;29;20118;-77
2023/01/23 07:08:41;;;;;;;21.58;13.68;;;1.60;99.90;;;;;;4912483;29;20044;-77
2023/01/23 07:11:09;;;;;;;20.38;13.15;;;1.40;99.90;;;;;;4928266;29;20094;-77
2023/01/23 07:13:35;;;;;;;19.02;13.68;;;1.30;99.90;;;;;;4929050;29;20139;-77
2023/01/23 07:16:03;;;;;;;20.85;13.50;;;1.10;99.90;;;;;;4902542;29;20384;-77
2023/01/23 07:18:31;;;;;;;20.80;13.70;;;1.10;99.90;;;;;;4918046;29;20080;-77
2023/01/23 07:20:58;;;;;;;21.20;14.05;;;1.10;99.90;;;;;;4905780;29;20091;-77
2023/01/23 07:23:25;;;;;;;19.02;13.27;;;1.10;99.90;;;;;;4923400;29;20048;-77
2023/01/23 07:25:58;;;;;;;21.42;13.90;;;1.10;99.90;;;;;;4926945;29;20071;-77
2023/01/23 07:28:25;;;;;;;22.60;14.25;;;1.10;99.90;;;;;;4904003;29;20063;-77
2023/01/23 07:30:51;;;;;;;18.70;12.95;;;1.20;99.90;;;;;;4917130;29;20083;-77
2023/01/23 07:33:18;;;;;;;21.75;13.57;;;1.20;99.90;;;;;;4926069;29;20490;-77
2023/01/23 07:35:45;;;;;;;22.45;14.25;;;1.30;99.90;;;;;;4925900;29;20044;-77
2023/01/23 07:38:12;;;;;;;18.13;12.57;;;1.40;99.90;;;;;;4928493;29;20135;-78
2023/01/23 07:40:41;;;;;;;19.65;13.45;;;1.40;99.90;;;;;;4930414;29;20577;-77
2023/01/23 07:43:08;;;;;;;18.00;11.85;;;1.40;99.90;;;;;;4919744;29;20050;-77
2023/01/23 07:45:36;;;;;;;17.23;11.63;;;1.50;99.90;;;;;;4923237;29;20139;-77
2023/01/23 07:48:03;;;;;;;16.65;11.93;;;1.50;99.90;;;;;;4906409;29;20082;-78
2023/01/23 07:50:30;;;;;;;16.08;11.25;;;1.50;99.90;;;;;;4926605;29;20051;-77
2023/01/23 07:52:57;;;;;;;17.40;10.57;;;1.50;99.90;;;;;;4911587;29;20083;-78
2023/01/23 07:55:23;;;;;;;17.20;10.73;;;1.50;99.90;;;;;;4925549;29;20131;-77
2023/01/23 07:57:50;;;;;;;15.98;10.25;;;1.50;99.90;;;;;;4927771;29;20052;-77
2023/01/23 08:00:17;;;;;;;15.90;10.77;;;1.60;99.90;;;;;;4922021;29;20423;-77
2023/01/23 08:02:44;;;;;;;17.52;9.73;;;1.70;99.90;;;;;;4926581;29;20059;-77
2023/01/23 08:05:11;;;;;;;14.38;10.43;;;1.60;99.90;;;;;;4926999;29;20061;-78
2023/01/23 08:07:37;;;;;;;17.27;11.75;;;1.60;99.90;;;;;;4928837;29;20054;-77
2023/01/23 08:10:05;;;;;;;16.95;10.98;;;1.70;99.90;;;;;;4928120;29;20054;-77
2023/01/23 08:12:32;;;;;;;25.48;16.83;;;1.70;99.90;;;;;;4922464;29;20506;-77
2023/01/23 08:14:59;;;;;;;22.40;15.30;;;1.70;99.90;;;;;;4920935;29;20421;-77
2023/01/23 08:17:25;;;;;;;14.63;9.40;;;1.80;99.90;;;;;;4930270;29;20112;-77
2023/01/23 08:19:52;;;;;;;12.85;9.52;;;1.80;99.90;;;;;;4930360;29;20138;-77
2023/01/23 08:22:19;;;;;;;14.65;9.57;;;1.80;99.90;;;;;;4926277;29;20086;-77
2023/01/23 08:24:46;;;;;;;14.82;9.60;;;1.90;99.90;;;;;;4931158;29;20609;-77
2023/01/23 08:27:12;;;;;;;14.73;9.90;;;1.90;99.90;;;;;;4921377;29;20516;-77
2023/01/23 08:29:39;;;;;;;15.40;10.00;;;2.00;99.90;;;;;;4900371;29;20102;-77
2023/01/23 08:32:06;;;;;;;14.23;9.93;;;2.00;99.90;;;;;;4922631;29;20044;-77
2023/01/23 08:34:32;;;;;;;12.45;8.52;;;2.00;99.90;;;;;;4929324;29;20048;-77
2023/01/23 08:36:59;;;;;;;12.07;8.75;;;2.10;99.90;;;;;;4927386;29;20056;-77
2023/01/23 08:39:26;;;;;;;12.95;8.77;;;2.10;99.90;;;;;;4921991;29;20048;-77
2023/01/23 08:41:52;;;;;;;13.52;9.07;;;2.20;99.90;;;;;;4902644;29;20135;-77
2023/01/23 08:44:19;;;;;;;11.77;8.70;;;2.20;99.90;;;;;;4916988;29;20140;-77
2023/01/23 08:46:46;;;;;;;13.15;8.13;;;2.20;99.90;;;;;;4922730;29;20051;-77
2023/01/23 08:49:13;;;;;;;12.27;8.35;;;2.20;99.90;;;;;;4927089;29;20043;-77
2023/01/23 08:51:39;;;;;;;11.23;7.97;;;2.20;99.90;;;;;;4926587;29;20123;-77
2023/01/23 08:54:06;;;;;;;12.48;7.75;;;2.20;99.90;;;;;;4927115;29;20051;-77
2023/01/23 08:56:33;;;;;;;9.52;7.10;;;2.20;99.90;;;;;;4920854;29;20087;-77
2023/01/23 08:58:59;;;;;;;12.20;7.13;;;2.20;99.90;;;;;;4906858;29;20131;-77
2023/01/23 09:01:26;;;;;;;9.98;6.80;;;2.30;99.90;;;;;;4928214;29;20087;-77
2023/01/23 09:03:53;;;;;;;10.73;7.32;;;2.20;99.90;;;;;;4927713;29;20088;-77
2023/01/23 09:06:21;;;;;;;9.85;6.70;;;2.20;99.90;;;;;;4929191;29;20048;-77
2023/01/23 09:08:48;;;;;;;10.20;6.45;;;2.30;99.90;;;;;;4933239;29;20079;-77
2023/01/23 09:11:16;;;;;;;7.55;5.53;;;2.20;99.90;;;;;;4927666;29;20127;-77
2023/01/23 09:13:47;;;;;;;8.35;5.43;;;2.20;99.90;;;;;;4923951;29;20083;-77
2023/01/23 09:16:14;;;;;;;8.38;5.68;;;2.10;99.90;;;;;;4914429;29;20490;-77
2023/01/23 09:18:41;;;;;;;6.35;5.15;;;2.00;99.90;;;;;;4927606;29;20060;-77
2023/01/23 09:21:11;;;;;;;9.20;6.07;;;2.10;99.90;;;;;;4927621;29;20071;-77
2023/01/23 09:23:37;;;;;;;8.32;6.07;;;2.10;99.90;;;;;;4921472;29;20052;-77
2023/01/23 09:26:07;;;;;;;7.45;5.20;;;2.10;99.90;;;;;;4928798;29;20142;-77
2023/01/23 09:28:35;;;;;;;9.50;6.13;;;2.10;99.90;;;;;;4930355;29;20796;-77
2023/01/23 09:31:06;;;;;;;9.48;6.30;;;2.10;99.90;;;;;;4928419;29;20095;-77
2023/01/23 09:33:33;;;;;;;9.75;6.75;;;2.20;99.90;;;;;;4930252;29;20059;-77
2023/01/23 09:36:01;;;;;;;11.00;7.50;;;2.30;99.90;;;;;;4928109;29;20075;-77
2023/01/23 09:38:27;;;;;;;10.50;7.57;;;2.30;99.90;;;;;;4921577;29;20152;-77
2023/01/23 09:40:57;;;;;;;10.93;7.25;;;2.40;99.90;;;;;;4927192;29;20602;-77
2023/01/23 09:43:50;;;;;;;10.30;7.40;;;2.40;99.90;;;;;;4907683;29;20062;-77
2023/01/23 09:46:25;;;;;;;11.23;7.82;;;2.40;99.90;;;;;;4926961;29;20513;-77
2023/01/23 09:49:10;;;;;;;11.55;7.75;;;2.40;99.90;;;;;;4924267;29;20134;-79
2023/01/23 09:51:36;;;;;;;9.65;7.18;;;2.40;99.90;;;;;;4923439;29;20127;-78
2023/01/23 09:54:39;;;;;;;11.93;7.65;;;2.40;99.90;;;;;;4926321;29;20043;-77
2023/01/23 09:57:23;;;;;;;11.38;7.70;;;2.40;99.90;;;;;;4914653;29;20048;-77
2023/01/23 09:59:56;;;;;;;9.88;6.60;;;2.50;99.90;;;;;;4914072;29;20083;-77
2023/01/23 10:02:26;;;;;;;11.75;7.30;;;2.50;99.90;;;;;;4924880;29;20440;-77
2023/01/23 10:04:55;;;;;;;12.60;7.82;;;2.50;99.90;;;;;;4927726;29;20075;-79
2023/01/23 10:07:37;;;;;;;11.48;7.63;;;2.60;99.90;;;;;;4903309;29;20060;-78
2023/01/23 10:10:34;;;;;;;11.50;7.22;;;2.60;99.90;;;;;;4923653;29;20086;-77
2023/01/23 10:13:39;;;;;;;11.90;7.85;;;2.70;99.90;;;;;;4911841;29;20614;-78
2023/01/23 10:16:23;;;;;;;11.10;6.80;;;2.80;99.90;;;;;;4905411;29;20040;-78
2023/01/23 10:19:08;;;;;;;9.45;6.60;;;2.90;99.90;;;;;;4918156;29;20515;-78
2023/01/23 10:21:49;;;;;;;10.40;6.55;;;3.00;99.90;;;;;;4919851;29;20052;-77
2023/01/23 10:24:44;;;;;;;10.20;6.63;;;3.10;99.90;;;;;;4909408;29;20486;-78
2023/01/23 10:27:33;;;;;;;7.90;5.68;;;3.20;99.90;;;;;;4924729;29;20492;-78
2023/01/23 10:30:21;;;;;;;9.23;6.47;;;3.20;99.90;;;;;;4916287;29;20170;-78
2023/01/23 10:33:08;;;;;;;7.28;5.55;;;3.30;99.90;;;;;;4928711;29;20071;-78
2023/01/23 10:36:00;;;;;;;8.18;5.43;;;3.40;99.90;;;;;;4915299;29;20123;-79
2023/01/23 10:38:49;;;;;;;9.25;5.63;;;3.30;99.90;;;;;;4927551;29;20055;-79
2023/01/23 10:41:21;;;;;;;9.80;6.38;;;3.30;99.90;;;;;;4929018;29;20099;-79
2023/01/23 10:43:52;;;;;;;8.55;5.57;;;3.30;99.90;;;;;;4928202;29;20047;-78
2023/01/23 10:46:25;;;;;;;11.32;6.43;;;3.30;99.90;;;;;;4925437;29;20118;-79
2023/01/23 10:48:52;;;;;;;6.75;5.05;;;3.20;99.90;;;;;;4922239;29;20052;-78
2023/01/23 10:51:47;;;;;;;6.57;4.45;;;3.20;99.90;;;;;;4922537;29;20131;-78
2023/01/23 10:54:29;;;;;;;8.55;5.50;;;3.20;99.90;;;;;;4927306;29;20043;-79
2023/01/23 10:57:20;;;;;;;8.13;5.60;;;3.20;99.90;;;;;;4916546;29;20509;-78
2023/01/23 11:00:06;;;;;;;9.05;5.60;;;3.10;99.90;;;;;;4916293;29;20075;-78
2023/01/23 11:02:39;;;;;;;8.43;6.10;;;3.00;99.90;;;;;;4928508;29;20530;-78
2023/01/23 11:05:39;;;;;;;8.93;5.35;;;3.00;99.90;;;;;;4919631;29;20122;-78
2023/01/23 11:08:27;;;;;;;10.05;6.03;;;3.00;99.90;;;;;;4909385;29;20070;-78
2023/01/23 11:11:17;;;;;;;8.02;5.32;;;3.00;99.90;;;;;;4928051;29;20068;-78
2023/01/23 11:13:46;;;;;;;8.85;5.57;;;2.90;99.90;;;;;;4920019;29;20082;-78
2023/01/23 11:16:20;;;;;;;12.98;8.40;;;2.90;99.90;;;;;;4927548;29;20040;-78
2023/01/23 11:18:53;;;;;;;10.25;6.82;;;2.90;99.90;;;;;;4925556;29;20071;-78
2023/01/23 11:21:20;;;;;;;10.98;6.82;;;3.00;99.90;;;;;;4915668;29;20087;-78
2023/01/23 11:23:47;;;;;;;8.45;5.55;;;3.00;99.90;;;;;;4914459;29;20112;-78
2023/01/23 11:26:31;;;;;;;11.23;7.50;;;3.00;99.90;;;;;;4931165;29;20050;-78
2023/01/23 11:28:57;;;;;;;10.85;7.38;;;3.00;99.90;;;;;;4937473;29;20103;-78
2023/01/23 11:31:26;;;;;;;10.25;6.20;;;3.10;99.90;;;;;;4930623;29;20048;-78
2023/01/23 11:33:56;;;;;;;11.05;7.50;;;3.20;99.90;;;;;;4921465;29;20044;-78
2023/01/23 11:36:51;;;;;;;8.02;5.78;;;3.10;99.90;;;;;;4916658;29;20072;-77
2023/01/23 11:39:25;;;;;;;8.57;5.57;;;3.20;99.90;;;;;;4932426;29;20063;-77
2023/01/23 11:41:52;;;;;;;9.63;6.85;;;3.20;99.90;;;;;;4917476;29;20047;-77
2023/01/23 11:44:20;;;;;;;11.20;7.28;;;3.20;99.90;;;;;;4923664;29;20075;-77
2023/01/23 11:46:48;;;;;;;18.10;8.20;;;3.20;99.90;;;;;;4909660;29;20048;-77
2023/01/23 11:49:23;;;;;;;10.40;6.93;;;3.30;99.90;;;;;;4932034;29;20047;-78
2023/01/23 11:52:24;;;;;;;10.75;7.40;;;3.30;99.90;;;;;;4932536;29;20131;-78
2023/01/23 11:55:13;;;;;;;10.85;7.32;;;3.40;99.90;;;;;;4920633;29;20056;-78
2023/01/23 11:58:03;;;;;;;10.48;6.95;;;3.40;99.90;;;;;;4928222;29;20104;-78
2023/01/23 12:00:36;;;;;;;11.07;7.18;;;3.50;99.90;;;;;;4923708;29;20052;-78
2023/01/23 12:03:14;;;;;;;10.48;6.88;;;3.50;99.90;;;;;;4911434;29;20148;-78
2023/01/23 12:05:50;;;;;;;16.13;7.47;;;3.50;99.90;;;;;;4934589;29;20516;-77
2023/01/23 12:08:25;;;;;;;11.88;7.82;;;3.50;99.90;;;;;;4931587;29;20048;-78
2023/01/23 12:11:09;;;;;;;11.85;6.57;;;3.50;99.90;;;;;;4914834;29;20048;-78
2023/01/23 12:13:45;;;;;;;10.18;6.72;;;3.50;99.90;;;;;;4919215;29;20406;-77
2023/01/23 12:16:47;;;;;;;11.00;6.05;;;3.60;99.90;;;;;;4926127;29;20050;-77
2023/01/23 12:19:26;;;;;;;10.63;6.70;;;3.60;99.90;;;;;;4926127;29;20092;-77
2023/01/23 12:22:02;;;;;;;10.70;6.63;;;3.70;99.90;;;;;;4927376;29;20062;-77
2023/01/23 12:24:50;;;;;;;9.57;6.38;;;3.60;99.90;;;;;;4926128;29;20051;-78
2023/01/23 12:27:33;;;;;;;9.18;5.72;;;3.60;99.90;;;;;;4924092;29;20127;-77
2023/01/23 12:30:21;;;;;;;9.60;6.90;;;3.60;99.90;;;;;;4925773;29;20044;-77
2023/01/23 12:33:05;;;;;;;9.10;6.40;;;3.50;99.90;;;;;;4913369;29;20981;-77
2023/01/23 12:35:49;;;;;;;9.45;5.18;;;3.50;99.90;;;;;;4930666;29;20146;-77
2023/01/23 12:38:24;;;;;;;8.57;6.13;;;3.50;99.90;;;;;;4929614;29;20047;-77
2023/01/23 12:41:10;;;;;;;8.02;5.72;;;3.50;99.90;;;;;;4917834;29;20581;-77
2023/01/23 12:43:54;;;;;;;10.68;7.38;;;3.50;99.90;;;;;;4922815;29;20091;-78
2023/01/23 12:46:54;;;;;;;16.05;7.18;;;3.50;99.90;;;;;;4923780;29;20056;-77
2023/01/23 12:49:35;;;;;;;10.95;6.40;;;3.50;99.90;;;;;;4912270;29;20462;-77
2023/01/23 12:52:12;;;;;;;8.88;6.32;;;3.50;99.90;;;;;;4927268;29;20132;-77
2023/01/23 12:54:44;;;;;;;9.88;5.88;;;3.60;99.90;;;;;;4924773;29;20079;-77
2023/01/23 12:57:11;;;;;;;12.30;6.80;;;3.60;99.90;;;;;;4926084;29;20082;-77
2023/01/23 13:00:03;;;;;;;9.30;5.63;;;3.50;99.90;;;;;;4910769;29;20107;-77
2023/01/23 13:02:43;;;;;;;10.35;6.45;;;3.50;99.90;;;;;;4928359;29;20083;-77
2023/01/23 13:05:16;;;;;;;10.50;6.78;;;3.50;99.90;;;;;;4926209;29;20524;-77
2023/01/23 13:08:14;;;;;;;9.63;6.32;;;3.60;99.90;;;;;;4925635;29;20048;-77
2023/01/23 13:13:40;;;;;;;9.70;6.80;;;3.50;99.90;;;;;;4923892;29;20151;-78
2023/01/23 13:16:10;;;;;;;11.45;6.07;;;3.50;99.90;;;;;;4932378;29;20047;-78